createdAt,value
2023-04-20T00:02:04.093Z,9.60
2023-04-20T00:04:32.271Z,9.60
2023-04-20T00:07:00.404Z,9.50
2023-04-20T00:09:29.202Z,9.40
2023-04-20T00:11:57.438Z,9.40
2023-04-20T00:14:25.570Z,9.30
2023-04-20T00:16:53.688Z,9.30
2023-04-20T00:19:23.333Z,9.30
2023-04-20T00:21:51.481Z,9.40
2023-04-20T00:24:19.592Z,9.20
2023-04-20T00:26:47.674Z,9.10
2023-04-20T00:29:16.004Z,9.10
2023-04-20T00:31:44.297Z,9.10
2023-04-20T00:34:12.444Z,9.10
2023-04-20T00:36:41.937Z,9.10
2023-04-20T00:39:10.540Z,9.00
2023-04-20T00:41:38.703Z,8.90
2023-04-20T00:44:08.041Z,8.90
2023-04-20T00:46:36.250Z,8.90
2023-04-20T00:49:04.545Z,8.90
2023-04-20T00:51:33.046Z,8.90
2023-04-20T00:54:03.071Z,8.80
2023-04-20T00:56:31.230Z,8.90
2023-04-20T00:58:59.478Z,8.70
2023-04-20T01:01:27.808Z,8.70
2023-04-20T01:03:56.243Z,8.70
2023-04-20T01:06:24.439Z,8.60
2023-04-20T01:08:53.450Z,8.60
2023-04-20T01:11:22.929Z,8.60
2023-04-20T01:13:51.076Z,8.60
2023-04-20T01:16:19.240Z,8.50
2023-04-20T01:18:49.910Z,8.50
2023-04-20T01:21:21.827Z,8.50
2023-04-20T01:23:51.818Z,8.40
2023-04-20T01:26:21.423Z,8.30
2023-04-20T01:28:49.530Z,8.30
2023-04-20T01:31:17.897Z,8.30
2023-04-20T01:33:46.113Z,8.20
2023-04-20T01:36:14.525Z,8.20
2023-04-20T01:38:42.737Z,8.10
2023-04-20T01:41:12.686Z,8.10
2023-04-20T01:43:41.562Z,8.10
2023-04-20T01:46:09.710Z,8.00
2023-04-20T01:48:37.914Z,8.00
2023-04-20T01:51:06.086Z,7.90
2023-04-20T01:53:34.261Z,7.90
2023-04-20T01:56:02.448Z,7.90
2023-04-20T01:58:32.136Z,7.80
2023-04-20T02:01:02.492Z,7.80
2023-04-20T02:03:31.064Z,7.80
2023-04-20T02:05:59.466Z,7.80
2023-04-20T02:08:27.689Z,7.90
2023-04-20T02:10:55.802Z,7.80
2023-04-20T02:13:23.970Z,7.80
2023-04-20T02:15:53.843Z,7.70
2023-04-20T02:18:22.725Z,7.70
2023-04-20T02:20:51.083Z,7.70
2023-04-20T02:23:19.245Z,7.60
2023-04-20T02:25:47.310Z,7.60
2023-04-20T02:28:15.436Z,7.60
2023-04-20T02:30:43.572Z,7.60
2023-04-20T02:33:13.225Z,7.50
2023-04-20T02:35:41.341Z,7.40
2023-04-20T02:38:09.476Z,7.40
2023-04-20T02:40:37.587Z,7.30
2023-04-20T02:43:05.996Z,7.20
2023-04-20T02:45:34.291Z,7.20
2023-04-20T02:48:02.543Z,7.20
2023-04-20T02:50:32.120Z,7.10
2023-04-20T02:53:00.228Z,7.10
2023-04-20T02:55:28.622Z,7.10
2023-04-20T02:57:56.787Z,7.10
2023-04-20T03:00:25.152Z,7.00
2023-04-20T03:02:53.517Z,7.00
2023-04-20T03:05:21.924Z,7.00
2023-04-20T03:07:51.461Z,7.00
2023-04-20T03:10:19.892Z,6.90
2023-04-20T03:12:47.944Z,7.00
2023-04-20T03:15:17.106Z,6.90
2023-04-20T03:17:45.248Z,6.90
2023-04-20T03:20:14.840Z,6.90
2023-04-20T03:22:42.959Z,6.90
2023-04-20T03:25:12.566Z,6.80
2023-04-20T03:27:40.878Z,6.80
2023-04-20T03:30:10.428Z,6.70
2023-04-20T03:32:39.374Z,6.70
2023-04-20T03:35:08.741Z,6.70
2023-04-20T03:37:38.045Z,6.60
2023-04-20T03:40:07.363Z,6.60
2023-04-20T03:42:37.250Z,6.70
2023-04-20T03:45:07.433Z,6.60
2023-04-20T03:47:35.686Z,6.60
2023-04-20T03:50:04.305Z,6.60
2023-04-20T03:52:32.420Z,6.60
2023-04-20T03:55:00.616Z,6.60
2023-04-20T03:57:28.726Z,6.40
2023-04-20T03:59:58.250Z,6.50
2023-04-20T04:02:26.626Z,6.50
2023-04-20T04:04:54.846Z,6.50
2023-04-20T04:07:23.048Z,6.50
2023-04-20T04:09:51.187Z,6.40
2023-04-20T04:12:19.361Z,6.50
2023-04-20T04:14:47.663Z,6.40
2023-04-20T04:17:17.270Z,6.40
2023-04-20T04:19:45.755Z,6.50
2023-04-20T04:22:13.820Z,6.50
2023-04-20T04:24:42.114Z,6.50
2023-04-20T04:27:11.272Z,6.60
2023-04-20T04:29:39.476Z,6.50
2023-04-20T04:32:08.115Z,6.50
2023-04-20T04:34:37.772Z,6.50
2023-04-20T04:37:05.978Z,6.60
2023-04-20T04:39:34.153Z,6.70
2023-04-20T04:42:04.322Z,6.70
2023-04-20T04:44:33.334Z,6.70
2023-04-20T04:47:03.342Z,6.70
2023-04-20T04:49:32.131Z,6.80
2023-04-20T04:52:01.672Z,6.70
2023-04-20T04:54:29.834Z,6.80
2023-04-20T04:56:58.338Z,6.70
2023-04-20T04:59:26.506Z,6.70
2023-04-20T05:01:54.803Z,6.80
2023-04-20T05:04:23.138Z,6.80
2023-04-20T05:06:51.512Z,6.80
2023-04-20T05:09:21.102Z,6.90
2023-04-20T05:11:49.487Z,6.90
2023-04-20T05:14:17.662Z,6.90
2023-04-20T05:16:45.869Z,6.90
2023-04-20T05:19:14.051Z,6.90
2023-04-20T05:21:42.239Z,7.00
2023-04-20T05:24:10.464Z,7.10
2023-04-20T05:26:40.144Z,7.10
2023-04-20T05:29:08.268Z,7.20
2023-04-20T05:31:36.732Z,7.30
2023-04-20T05:34:04.978Z,7.30
2023-04-20T05:36:33.628Z,7.40
2023-04-20T05:39:01.770Z,7.50
2023-04-20T05:41:30.075Z,7.50
2023-04-20T05:44:00.054Z,7.60
2023-04-20T05:46:29.381Z,7.60
2023-04-20T05:48:57.710Z,7.70
2023-04-20T05:51:29.112Z,7.70
2023-04-20T05:53:57.292Z,7.60
2023-04-20T05:56:25.813Z,7.70
2023-04-20T05:58:54.362Z,7.80
2023-04-20T06:01:24.095Z,7.80
2023-04-20T06:03:52.476Z,7.90
2023-04-20T06:06:20.898Z,7.90
2023-04-20T06:08:50.947Z,8.00
2023-04-20T06:11:19.244Z,8.00
2023-04-20T06:13:47.654Z,8.00
2023-04-20T06:16:15.925Z,8.00
2023-04-20T06:18:45.465Z,8.20
2023-04-20T06:21:13.998Z,8.10
2023-04-20T06:23:42.510Z,8.10
2023-04-20T06:26:10.697Z,8.10
2023-04-20T06:28:39.393Z,8.10
2023-04-20T06:31:07.792Z,8.20
2023-04-20T06:33:36.414Z,8.20
2023-04-20T06:36:08.196Z,8.10
2023-04-20T06:38:36.336Z,8.10
2023-04-20T06:41:04.875Z,8.10
2023-04-20T06:43:33.158Z,8.10
2023-04-20T06:46:01.604Z,8.10
2023-04-20T06:48:32.803Z,8.10
2023-04-20T06:51:01.554Z,8.10
2023-04-20T06:53:31.133Z,8.20
2023-04-20T06:55:59.246Z,8.20
2023-04-20T06:58:27.441Z,8.20
2023-04-20T07:00:55.601Z,8.30
2023-04-20T07:03:24.346Z,8.30
2023-04-20T07:05:52.674Z,8.30
2023-04-20T07:08:22.130Z,8.30
2023-04-20T07:10:51.637Z,8.30
2023-04-20T07:13:19.775Z,8.30
2023-04-20T07:15:47.992Z,8.40
2023-04-20T07:18:16.168Z,8.50
2023-04-20T07:20:44.599Z,8.50
2023-04-20T07:23:12.804Z,8.50
2023-04-20T07:25:41.005Z,8.60
2023-04-20T07:28:10.583Z,8.60
2023-04-20T07:30:38.773Z,8.60
2023-04-20T07:33:07.490Z,8.60
2023-04-20T07:35:35.775Z,8.60
2023-04-20T07:38:04.015Z,8.70
2023-04-20T07:40:32.165Z,8.70
2023-04-20T07:43:00.294Z,8.70
2023-04-20T07:45:29.896Z,8.80
2023-04-20T07:48:01.423Z,8.80
2023-04-20T07:50:29.969Z,8.90
2023-04-20T07:52:58.263Z,8.90
2023-04-20T07:55:26.413Z,8.90
2023-04-20T07:57:54.586Z,9.00
2023-04-20T08:00:23.023Z,9.10
2023-04-20T08:02:52.613Z,9.20
2023-04-20T08:05:21.332Z,9.30
2023-04-20T08:07:49.687Z,9.40
2023-04-20T08:10:17.925Z,9.60
2023-04-20T08:12:47.139Z,9.70
2023-04-20T08:15:15.500Z,9.90
2023-04-20T08:17:43.785Z,9.90
2023-04-20T08:20:13.718Z,10.00
2023-04-20T08:22:41.925Z,10.10
2023-04-20T08:25:10.463Z,10.20
2023-04-20T08:27:38.803Z,10.20
2023-04-20T08:30:08.759Z,10.20
2023-04-20T08:32:36.995Z,10.20
2023-04-20T08:42:40.269Z,10.30
2023-04-20T08:45:09.168Z,10.40
2023-04-20T08:47:38.069Z,10.40
2023-04-20T08:50:07.796Z,10.50
2023-04-20T08:55:09.667Z,10.70
2023-04-20T08:57:37.812Z,10.70
2023-04-20T09:00:12.209Z,10.70
2023-04-20T09:02:51.561Z,10.70
2023-04-20T09:05:27.840Z,10.70
2023-04-20T09:07:57.409Z,10.90
2023-04-20T09:10:28.209Z,10.90
2023-04-20T09:12:56.482Z,10.90
2023-04-20T09:15:29.024Z,11.00
2023-04-20T09:17:57.323Z,11.00
2023-04-20T09:20:30.137Z,11.30
2023-04-20T09:22:58.473Z,11.20
2023-04-20T09:25:29.165Z,11.40
2023-04-20T09:27:59.056Z,11.70
2023-04-20T09:33:05.622Z,12.10
2023-04-20T09:35:33.812Z,12.00
2023-04-20T09:38:02.094Z,12.10
2023-04-20T09:47:59.504Z,13.50
2023-04-20T09:50:38.159Z,13.30
2023-04-20T09:53:11.090Z,13.40
2023-04-20T10:05:39.814Z,13.00
2023-04-20T11:11:19.428Z,12.50
2023-04-20T11:13:49.540Z,12.40
2023-04-20T11:16:19.697Z,12.60
2023-04-20T11:18:53.561Z,12.40
2023-04-20T11:33:55.046Z,15.00
2023-04-20T11:36:24.129Z,14.50
2023-04-20T11:38:52.522Z,14.20
2023-04-20T11:46:21.357Z,14.00
2023-04-20T12:23:37.921Z,13.00
2023-04-20T12:26:06.704Z,13.00
2023-04-20T12:28:35.043Z,13.00
2023-04-20T12:31:03.677Z,12.80
2023-04-20T12:33:32.120Z,12.80
2023-04-20T12:36:00.602Z,12.70
2023-04-20T12:38:30.124Z,12.80
2023-04-20T12:40:58.273Z,12.90
2023-04-20T12:43:26.797Z,12.90
2023-04-20T12:45:55.041Z,12.90
2023-04-20T12:48:23.233Z,12.50
2023-04-20T12:50:52.109Z,12.60
2023-04-20T12:53:20.268Z,12.80
2023-04-20T12:55:54.994Z,12.70
2023-04-20T12:58:28.780Z,12.40
2023-04-20T13:00:57.039Z,12.20
2023-04-20T13:03:25.541Z,12.20
2023-04-20T13:05:53.807Z,12.10
2023-04-20T13:08:22.081Z,12.10
2023-04-20T13:10:51.600Z,12.10
2023-04-20T13:13:19.878Z,11.80
2023-04-20T13:15:48.109Z,11.80
2023-04-20T13:18:16.428Z,11.60
2023-04-20T13:20:44.594Z,11.60
2023-04-20T13:23:12.864Z,11.60
2023-04-20T13:25:41.290Z,11.80
2023-04-20T13:28:12.597Z,11.80
2023-04-20T13:30:42.357Z,12.00
2023-04-20T13:33:10.544Z,12.10
2023-04-20T13:35:38.894Z,12.30
2023-04-20T13:38:07.135Z,12.40
2023-04-20T13:45:36.009Z,14.10
2023-04-20T14:07:56.682Z,14.50
2023-04-20T14:10:24.843Z,14.40
2023-04-20T14:12:52.956Z,13.90
2023-04-20T14:15:21.209Z,13.80
2023-04-20T14:17:51.026Z,13.50
2023-04-20T14:20:22.069Z,13.40
2023-04-20T14:22:50.206Z,13.40
2023-04-20T14:25:18.496Z,13.60
2023-04-20T14:27:46.714Z,14.10
2023-04-20T14:30:16.143Z,14.50
2023-04-20T14:32:55.304Z,14.50
2023-04-20T14:35:26.112Z,15.00
2023-04-20T14:37:54.306Z,15.20
2023-04-20T14:40:22.859Z,15.10
2023-04-20T14:42:50.998Z,15.30
2023-04-20T14:45:19.254Z,15.90
2023-04-20T14:47:47.427Z,16.00
2023-04-20T14:50:15.570Z,16.00
2023-04-20T14:52:45.150Z,16.00
2023-04-20T14:55:13.330Z,16.20
2023-04-20T14:57:41.459Z,16.40
2023-04-20T15:00:12.031Z,17.00
2023-04-20T15:02:41.101Z,17.00
2023-04-20T15:05:11.160Z,17.00
2023-04-20T15:07:39.603Z,16.80
2023-04-20T15:10:09.521Z,16.80
2023-04-20T15:12:37.699Z,16.70
2023-04-20T15:15:06.783Z,16.50
2023-04-20T15:17:35.015Z,16.30
2023-04-20T15:20:03.596Z,15.80
2023-04-20T15:22:32.024Z,15.50
2023-04-20T15:25:00.187Z,15.50
2023-04-20T15:27:29.871Z,15.30
2023-04-20T15:29:59.085Z,14.90
2023-04-20T15:32:27.698Z,14.50
2023-04-20T15:34:55.872Z,14.00
2023-04-20T15:37:24.038Z,14.00
2023-04-20T15:39:52.507Z,13.80
2023-04-20T15:42:20.748Z,13.80
2023-04-20T15:44:50.280Z,13.70
2023-04-20T15:47:18.472Z,13.30
2023-04-20T15:49:46.648Z,13.40
2023-04-20T15:52:14.852Z,13.50
2023-04-20T15:54:43.908Z,13.90
2023-04-20T15:57:12.090Z,14.20
2023-04-20T15:59:40.174Z,14.60
2023-04-20T16:02:09.805Z,14.80
2023-04-20T16:04:38.176Z,15.00
2023-04-20T16:07:06.428Z,15.00
2023-04-20T16:09:34.597Z,14.90
2023-04-20T16:12:05.705Z,14.90
2023-04-20T16:14:33.874Z,14.80
2023-04-20T16:17:03.261Z,14.80
2023-04-20T16:19:34.421Z,15.10
2023-04-20T16:22:02.603Z,15.20
2023-04-20T16:24:30.877Z,15.10
2023-04-20T16:27:01.537Z,15.20
2023-04-20T16:29:30.120Z,15.40
2023-04-20T16:31:58.402Z,15.30
2023-04-20T16:34:26.635Z,15.10
2023-04-20T16:36:56.225Z,14.70
2023-04-20T16:39:24.358Z,14.50
2023-04-20T16:41:52.582Z,14.30
2023-04-20T16:44:21.090Z,14.30
2023-04-20T16:46:50.762Z,14.10
2023-04-20T16:49:19.052Z,14.10
2023-04-20T16:51:47.667Z,13.90
2023-04-20T16:54:17.491Z,13.80
2023-04-20T16:56:45.946Z,13.70
2023-04-20T16:59:14.106Z,13.70
2023-04-20T17:01:42.505Z,13.80
2023-04-20T17:04:10.856Z,13.90
2023-04-20T17:06:39.093Z,14.10
2023-04-20T17:09:07.504Z,14.10
2023-04-20T17:11:38.149Z,14.30
2023-04-20T17:14:06.306Z,14.20
2023-04-20T17:16:34.533Z,14.10
2023-04-20T17:19:04.495Z,14.10
2023-04-20T17:21:32.669Z,14.20
2023-04-20T17:24:00.993Z,13.90
2023-04-20T17:26:29.223Z,13.90
2023-04-20T17:28:58.814Z,13.90
2023-04-20T17:31:27.080Z,13.90
2023-04-20T17:33:55.849Z,13.90
2023-04-20T17:36:24.013Z,14.00
2023-04-20T17:38:52.236Z,14.00
2023-04-20T17:41:20.332Z,14.10
2023-04-20T17:43:48.688Z,14.10
2023-04-20T17:46:18.433Z,14.10
2023-04-20T17:48:46.655Z,14.00
2023-04-20T17:51:14.992Z,13.80
2023-04-20T17:53:43.167Z,13.60
2023-04-20T17:56:11.911Z,13.50
2023-04-20T17:58:40.078Z,13.40
2023-04-20T18:01:08.224Z,13.10
2023-04-20T18:03:37.874Z,13.00
2023-04-20T18:06:06.255Z,12.90
2023-04-20T18:08:34.604Z,12.80
2023-04-20T18:11:03.217Z,12.70
2023-04-20T18:13:31.320Z,12.60
2023-04-20T18:15:59.874Z,12.60
2023-04-20T18:18:28.084Z,12.60
2023-04-20T18:20:57.565Z,12.60
2023-04-20T18:23:25.868Z,12.60
2023-04-20T18:25:54.089Z,12.40
2023-04-20T18:28:22.247Z,12.30
2023-04-20T18:30:50.415Z,12.30
2023-04-20T18:33:18.576Z,12.30
2023-04-20T18:35:47.188Z,12.20
2023-04-20T18:38:16.710Z,12.10
2023-04-20T18:40:44.815Z,12.10
2023-04-20T18:43:13.041Z,12.00
2023-04-20T18:45:41.289Z,12.00
2023-04-20T18:48:09.494Z,12.00
2023-04-20T18:50:37.661Z,12.00
2023-04-20T18:53:06.211Z,11.90
2023-04-20T18:55:36.011Z,11.90
2023-04-20T18:58:04.171Z,11.80
2023-04-20T19:00:32.417Z,11.80
2023-04-20T19:03:00.781Z,11.80
2023-04-20T19:05:30.225Z,11.70
2023-04-20T19:07:58.401Z,11.60
2023-04-20T19:10:26.684Z,11.60
2023-04-20T19:12:56.927Z,11.50
2023-04-20T19:15:27.292Z,11.50
2023-04-20T19:17:56.637Z,11.40
2023-04-20T19:20:25.376Z,11.30
2023-04-20T19:22:53.680Z,11.20
2023-04-20T19:25:22.023Z,11.30
2023-04-20T19:27:50.222Z,11.20
2023-04-20T19:30:19.948Z,11.10
2023-04-20T19:32:48.201Z,11.00
2023-04-20T19:35:16.372Z,10.90
2023-04-20T19:37:44.858Z,11.00
2023-04-20T19:40:13.609Z,10.90
2023-04-20T19:42:42.469Z,10.80
2023-04-20T19:45:10.984Z,10.80
2023-04-20T19:47:40.567Z,10.80
2023-04-20T19:50:09.247Z,10.80
2023-04-20T19:52:37.393Z,10.70
2023-04-20T19:55:06.931Z,10.60
2023-04-20T20:02:32.740Z,10.50
2023-04-20T20:05:02.356Z,10.50
2023-04-20T20:07:30.535Z,10.30
2023-04-20T20:09:58.790Z,10.40
2023-04-20T20:12:27.197Z,10.40
2023-04-20T20:14:55.336Z,10.30
2023-04-20T20:17:23.900Z,10.10
2023-04-20T20:19:53.719Z,9.90
2023-04-20T20:22:24.666Z,10.00
2023-04-20T20:24:54.504Z,10.00
2023-04-20T20:27:22.727Z,9.90
2023-04-20T20:34:50.414Z,9.70
2023-04-20T20:37:18.557Z,9.70
2023-04-20T20:39:48.059Z,9.60
2023-04-20T20:42:16.480Z,9.50
2023-04-20T20:44:44.753Z,9.50
2023-04-20T20:47:12.923Z,9.50
2023-04-20T20:49:41.096Z,9.50
2023-04-20T20:52:09.342Z,9.30
2023-04-20T20:54:37.545Z,9.30
2023-04-20T20:57:07.062Z,9.30
2023-04-20T20:59:35.325Z,9.10
2023-04-20T21:02:03.757Z,9.20
2023-04-20T21:04:32.077Z,9.10
2023-04-20T21:07:00.280Z,9.10
2023-04-20T21:09:28.348Z,9.00
2023-04-20T21:11:57.623Z,9.00
2023-04-20T21:14:27.189Z,8.70
2023-04-20T21:16:55.393Z,8.80
2023-04-20T21:19:23.749Z,8.70
2023-04-20T21:21:51.944Z,8.70
2023-04-20T21:24:20.624Z,8.70
2023-04-20T21:26:48.757Z,8.60
2023-04-20T21:29:17.201Z,8.60
2023-04-20T21:31:46.944Z,8.60
2023-04-20T21:34:15.181Z,8.50
2023-04-20T21:36:43.409Z,8.50
2023-04-20T21:39:11.735Z,8.50
2023-04-20T21:41:39.944Z,8.50
2023-04-20T21:44:08.054Z,8.50
2023-04-20T21:46:36.371Z,8.40
2023-04-20T21:49:05.964Z,8.40
2023-04-20T21:51:34.173Z,8.30
2023-04-20T21:54:02.225Z,8.30
2023-04-20T21:56:30.636Z,8.40
2023-04-20T21:58:58.781Z,8.40
2023-04-20T22:01:27.011Z,8.40
2023-04-20T22:03:56.144Z,8.40
2023-04-20T22:06:25.806Z,8.40
2023-04-20T22:08:53.990Z,8.30
2023-04-20T22:11:22.247Z,8.30
2023-04-20T22:13:50.401Z,8.30
2023-04-20T22:16:21.223Z,8.20
2023-04-20T22:18:49.879Z,8.20
2023-04-20T22:21:18.054Z,8.20
2023-04-20T22:23:47.538Z,8.10
2023-04-20T22:26:16.129Z,8.10
2023-04-20T22:28:44.274Z,8.10
2023-04-20T22:31:12.517Z,8.00
2023-04-20T22:33:40.690Z,8.00
2023-04-20T22:36:10.116Z,8.00
2023-04-20T22:38:38.873Z,7.90
2023-04-20T22:41:08.360Z,7.90
2023-04-20T22:43:36.519Z,7.80
2023-04-20T22:46:04.656Z,7.80
2023-04-20T22:48:32.918Z,7.90
2023-04-20T22:53:31.949Z,8.80
2023-04-20T23:16:00.869Z,8.20
2023-04-20T23:18:29.038Z,8.20
2023-04-20T23:20:57.392Z,8.10
